sensor_id;sensor_type;location;lat;lon;timestamp;temperature;humidity
4820;DHT22;2424;49.696;6.630;2024-02-14T00:05:16;7.30;99.90
4820;DHT22;2424;49.696;6.630;2024-02-14T00:10:38;7.30;99.90
4820;DHT22;2424;49.696;6.630;2024-02-14T00:16:01;7.30;99.90
4820;DHT22;2424;49.696;6.630;2024-02-14T00:21:24;7.30;99.90
4820;DHT22;2424;49.696;6.630;2024-02-14T00:26:46;7.30;99.90
4820;DHT22;2424;49.696;6.630;2024-02-14T00:32:09;7.30;99.90
4820;DHT22;2424;49.696;6.630;2024-02-14T00:37:31;7.30;99.90
4820;DHT22;2424;49.696;6.630;2024-02-14T00:42:54;7.40;99.90
4820;DHT22;2424;49.696;6.630;2024-02-14T00:48:18;7.40;99.90
4820;DHT22;2424;49.696;6.630;2024-02-14T00:53:39;7.50;99.90
4820;DHT22;2424;49.696;6.630;2024-02-14T00:59:01;7.50;99.90
4820;DHT22;2424;49.696;6.630;2024-02-14T01:04:25;7.50;99.90
4820;DHT22;2424;49.696;6.630;2024-02-14T01:09:46;7.50;99.90
4820;DHT22;2424;49.696;6.630;2024-02-14T01:15:09;7.70;99.90
4820;DHT22;2424;49.696;6.630;2024-02-14T01:20:32;7.60;99.90
4820;DHT22;2424;49.696;6.630;2024-02-14T01:25:54;7.60;99.90
4820;DHT22;2424;49.696;6.630;2024-02-14T01:31:16;7.60;99.90
4820;DHT22;2424;49.696;6.630;2024-02-14T01:36:39;7.60;99.90
4820;DHT22;2424;49.696;6.630;2024-02-14T01:42:02;7.70;99.90
4820;DHT22;2424;49.696;6.630;2024-02-14T01:47:27;7.70;99.90
4820;DHT22;2424;49.696;6.630;2024-02-14T01:52:50;7.60;99.90
4820;DHT22;2424;49.696;6.630;2024-02-14T01:58:13;7.70;99.90
4820;DHT22;2424;49.696;6.630;2024-02-14T02:03:35;7.70;99.90
4820;DHT22;2424;49.696;6.630;2024-02-14T02:08:59;7.60;99.90
4820;DHT22;2424;49.696;6.630;2024-02-14T02:14:21;7.60;99.90
4820;DHT22;2424;49.696;6.630;2024-02-14T02:19:43;7.60;99.90
4820;DHT22;2424;49.696;6.630;2024-02-14T02:25:07;7.50;99.90
4820;DHT22;2424;49.696;6.630;2024-02-14T02:30:29;7.50;99.90
4820;DHT22;2424;49.696;6.630;2024-02-14T02:35:51;7.40;99.90
4820;DHT22;2424;49.696;6.630;2024-02-14T02:41:15;7.40;99.90
4820;DHT22;2424;49.696;6.630;2024-02-14T02:46:37;7.40;99.90
4820;DHT22;2424;49.696;6.630;2024-02-14T02:52:00;7.40;99.90
4820;DHT22;2424;49.696;6.630;2024-02-14T02:57:23;7.40;99.90
4820;DHT22;2424;49.696;6.630;2024-02-14T03:02:47;7.40;99.90
4820;DHT22;2424;49.696;6.630;2024-02-14T03:08:09;7.40;99.90
4820;DHT22;2424;49.696;6.630;2024-02-14T03:13:35;7.40;99.90
4820;DHT22;2424;49.696;6.630;2024-02-14T03:19:01;7.40;99.90
4820;DHT22;2424;49.696;6.630;2024-02-14T03:24:24;7.40;99.90
4820;DHT22;2424;49.696;6.630;2024-02-14T03:29:47;7.40;99.90
4820;DHT22;2424;49.696;6.630;2024-02-14T03:35:11;7.40;99.90
4820;DHT22;2424;49.696;6.630;2024-02-14T03:40:33;7.40;99.90
4820;DHT22;2424;49.696;6.630;2024-02-14T03:45:57;7.40;99.90
4820;DHT22;2424;49.696;6.630;2024-02-14T03:51:19;7.40;99.90
4820;DHT22;2424;49.696;6.630;2024-02-14T03:56:41;7.40;99.90
4820;DHT22;2424;49.696;6.630;2024-02-14T04:02:04;7.30;99.90
4820;DHT22;2424;49.696;6.630;2024-02-14T04:07:30;7.30;99.90
4820;DHT22;2424;49.696;6.630;2024-02-14T04:12:52;7.30;99.90
4820;DHT22;2424;49.696;6.630;2024-02-14T04:18:15;7.30;99.90
4820;DHT22;2424;49.696;6.630;2024-02-14T04:23:38;7.20;99.90
4820;DHT22;2424;49.696;6.630;2024-02-14T04:29:01;7.30;99.90
4820;DHT22;2424;49.696;6.630;2024-02-14T04:34:25;7.30;99.90
4820;DHT22;2424;49.696;6.630;2024-02-14T04:39:46;7.30;99.90
4820;DHT22;2424;49.696;6.630;2024-02-14T04:45:09;7.30;99.90
4820;DHT22;2424;49.696;6.630;2024-02-14T04:50:32;7.30;99.90
4820;DHT22;2424;49.696;6.630;2024-02-14T04:55:54;7.30;99.90
4820;DHT22;2424;49.696;6.630;2024-02-14T05:01:16;7.30;99.90
4820;DHT22;2424;49.696;6.630;2024-02-14T05:06:40;7.30;99.90
4820;DHT22;2424;49.696;6.630;2024-02-14T05:12:02;7.20;99.90
4820;DHT22;2424;49.696;6.630;2024-02-14T05:17:24;7.20;99.90
4820;DHT22;2424;49.696;6.630;2024-02-14T05:22:48;7.20;99.90
4820;DHT22;2424;49.696;6.630;2024-02-14T05:28:10;7.10;99.90
4820;DHT22;2424;49.696;6.630;2024-02-14T05:33:34;7.10;99.90
4820;DHT22;2424;49.696;6.630;2024-02-14T05:38:57;7.10;99.90
4820;DHT22;2424;49.696;6.630;2024-02-14T05:44:19;7.10;99.90
4820;DHT22;2424;49.696;6.630;2024-02-14T05:49:41;7.10;99.90
4820;DHT22;2424;49.696;6.630;2024-02-14T05:55:05;7.20;99.90
4820;DHT22;2424;49.696;6.630;2024-02-14T06:00:29;7.20;99.90
4820;DHT22;2424;49.696;6.630;2024-02-14T06:05:51;7.20;99.90
4820;DHT22;2424;49.696;6.630;2024-02-14T06:11:14;7.20;99.90
4820;DHT22;2424;49.696;6.630;2024-02-14T06:16:36;7.20;99.90
4820;DHT22;2424;49.696;6.630;2024-02-14T06:21:58;7.30;99.90
4820;DHT22;2424;49.696;6.630;2024-02-14T06:27:22;7.30;99.90
4820;DHT22;2424;49.696;6.630;2024-02-14T06:32:44;7.30;99.90
4820;DHT22;2424;49.696;6.630;2024-02-14T06:38:06;7.30;99.90
4820;DHT22;2424;49.696;6.630;2024-02-14T06:43:29;7.30;99.90
4820;DHT22;2424;49.696;6.630;2024-02-14T06:48:51;7.30;99.90
4820;DHT22;2424;49.696;6.630;2024-02-14T06:54:13;7.30;99.90
4820;DHT22;2424;49.696;6.630;2024-02-14T06:59:36;7.30;99.90
4820;DHT22;2424;49.696;6.630;2024-02-14T07:04:58;7.30;99.90
4820;DHT22;2424;49.696;6.630;2024-02-14T07:10:20;7.30;99.90
4820;DHT22;2424;49.696;6.630;2024-02-14T07:15:43;7.30;99.90
4820;DHT22;2424;49.696;6.630;2024-02-14T07:21:06;7.30;99.90
4820;DHT22;2424;49.696;6.630;2024-02-14T07:26:27;7.30;99.90
4820;DHT22;2424;49.696;6.630;2024-02-14T07:31:51;7.30;99.90
4820;DHT22;2424;49.696;6.630;2024-02-14T07:37:13;7.30;99.90
4820;DHT22;2424;49.696;6.630;2024-02-14T07:42:38;7.40;99.90
4820;DHT22;2424;49.696;6.630;2024-02-14T07:48:02;7.40;99.90
4820;DHT22;2424;49.696;6.630;2024-02-14T07:53:24;7.40;99.90
4820;DHT22;2424;49.696;6.630;2024-02-14T07:58:46;7.40;99.90
4820;DHT22;2424;49.696;6.630;2024-02-14T08:04:09;7.50;99.90
4820;DHT22;2424;49.696;6.630;2024-02-14T08:09:31;7.50;99.90
4820;DHT22;2424;49.696;6.630;2024-02-14T08:14:53;7.60;99.90
4820;DHT22;2424;49.696;6.630;2024-02-14T08:20:17;7.60;99.90
4820;DHT22;2424;49.696;6.630;2024-02-14T08:25:39;7.70;99.90
4820;DHT22;2424;49.696;6.630;2024-02-14T08:31:01;7.70;99.90
4820;DHT22;2424;49.696;6.630;2024-02-14T08:36:25;7.80;99.90
4820;DHT22;2424;49.696;6.630;2024-02-14T08:41:46;7.80;99.90
4820;DHT22;2424;49.696;6.630;2024-02-14T08:47:08;7.80;99.90
4820;DHT22;2424;49.696;6.630;2024-02-14T08:52:32;7.90;99.90
4820;DHT22;2424;49.696;6.630;2024-02-14T08:57:54;7.90;99.90
4820;DHT22;2424;49.696;6.630;2024-02-14T09:03:16;7.90;99.90
4820;DHT22;2424;49.696;6.630;2024-02-14T09:08:40;8.00;99.90
4820;DHT22;2424;49.696;6.630;2024-02-14T09:14:02;8.00;99.90
4820;DHT22;2424;49.696;6.630;2024-02-14T09:19:27;8.10;99.90
4820;DHT22;2424;49.696;6.630;2024-02-14T09:24:51;8.10;99.90
4820;DHT22;2424;49.696;6.630;2024-02-14T09:30:14;8.10;99.90
4820;DHT22;2424;49.696;6.630;2024-02-14T09:35:38;8.20;99.90
4820;DHT22;2424;49.696;6.630;2024-02-14T09:41:17;8.20;99.90
4820;DHT22;2424;49.696;6.630;2024-02-14T09:46:42;8.30;99.90
4820;DHT22;2424;49.696;6.630;2024-02-14T09:52:05;8.30;99.90
4820;DHT22;2424;49.696;6.630;2024-02-14T09:57:29;8.30;99.90
4820;DHT22;2424;49.696;6.630;2024-02-14T10:02:51;8.40;99.90
4820;DHT22;2424;49.696;6.630;2024-02-14T10:08:13;8.40;99.90
4820;DHT22;2424;49.696;6.630;2024-02-14T10:13:37;8.50;99.90
4820;DHT22;2424;49.696;6.630;2024-02-14T10:18:59;8.50;99.90
4820;DHT22;2424;49.696;6.630;2024-02-14T10:24:21;8.60;99.90
4820;DHT22;2424;49.696;6.630;2024-02-14T10:29:44;8.70;99.90
4820;DHT22;2424;49.696;6.630;2024-02-14T10:35:07;8.80;99.90
4820;DHT22;2424;49.696;6.630;2024-02-14T10:40:29;9.00;99.90
4820;DHT22;2424;49.696;6.630;2024-02-14T10:45:54;9.10;99.90
4820;DHT22;2424;49.696;6.630;2024-02-14T10:51:19;9.10;99.90
4820;DHT22;2424;49.696;6.630;2024-02-14T10:56:48;9.10;99.90
4820;DHT22;2424;49.696;6.630;2024-02-14T11:02:12;9.20;99.90
4820;DHT22;2424;49.696;6.630;2024-02-14T11:07:34;9.30;99.90
4820;DHT22;2424;49.696;6.630;2024-02-14T11:12:56;9.40;99.90
4820;DHT22;2424;49.696;6.630;2024-02-14T11:18:27;9.40;99.90
4820;DHT22;2424;49.696;6.630;2024-02-14T11:23:53;9.40;99.90
4820;DHT22;2424;49.696;6.630;2024-02-14T11:29:16;9.50;99.90
4820;DHT22;2424;49.696;6.630;2024-02-14T11:34:39;9.60;99.90
4820;DHT22;2424;49.696;6.630;2024-02-14T11:40:01;9.60;99.90
4820;DHT22;2424;49.696;6.630;2024-02-14T11:45:24;9.70;99.90
4820;DHT22;2424;49.696;6.630;2024-02-14T11:50:47;9.70;99.90
4820;DHT22;2424;49.696;6.630;2024-02-14T11:56:09;9.80;99.90
4820;DHT22;2424;49.696;6.630;2024-02-14T12:01:34;9.80;99.90
4820;DHT22;2424;49.696;6.630;2024-02-14T12:06:57;9.80;99.90
4820;DHT22;2424;49.696;6.630;2024-02-14T12:12:19;9.80;99.90
4820;DHT22;2424;49.696;6.630;2024-02-14T12:17:45;9.70;99.90
4820;DHT22;2424;49.696;6.630;2024-02-14T12:23:16;9.70;99.90
4820;DHT22;2424;49.696;6.630;2024-02-14T12:28:38;9.70;99.90
4820;DHT22;2424;49.696;6.630;2024-02-14T12:34:00;9.70;99.90
4820;DHT22;2424;49.696;6.630;2024-02-14T12:39:26;9.70;99.90
4820;DHT22;2424;49.696;6.630;2024-02-14T12:44:48;9.70;99.90
4820;DHT22;2424;49.696;6.630;2024-02-14T12:50:10;9.70;99.90
4820;DHT22;2424;49.696;6.630;2024-02-14T12:55:33;9.80;99.90
4820;DHT22;2424;49.696;6.630;2024-02-14T13:00:55;9.80;99.90
4820;DHT22;2424;49.696;6.630;2024-02-14T13:06:17;9.80;99.90
4820;DHT22;2424;49.696;6.630;2024-02-14T13:11:40;9.80;99.90
4820;DHT22;2424;49.696;6.630;2024-02-14T13:17:03;9.80;99.90
4820;DHT22;2424;49.696;6.630;2024-02-14T13:22:26;9.90;99.90
4820;DHT22;2424;49.696;6.630;2024-02-14T13:27:49;9.90;99.90
4820;DHT22;2424;49.696;6.630;2024-02-14T13:33:11;9.90;99.90
4820;DHT22;2424;49.696;6.630;2024-02-14T13:38:33;10.00;99.90
4820;DHT22;2424;49.696;6.630;2024-02-14T13:43:57;10.00;99.90
4820;DHT22;2424;49.696;6.630;2024-02-14T13:49:18;10.00;99.90
4820;DHT22;2424;49.696;6.630;2024-02-14T13:54:42;10.00;99.90
4820;DHT22;2424;49.696;6.630;2024-02-14T14:00:08;10.00;99.90
4820;DHT22;2424;49.696;6.630;2024-02-14T14:05:30;10.10;99.90
4820;DHT22;2424;49.696;6.630;2024-02-14T14:10:52;10.20;99.90
4820;DHT22;2424;49.696;6.630;2024-02-14T14:16:16;10.20;99.90
4820;DHT22;2424;49.696;6.630;2024-02-14T14:21:38;10.20;99.90
4820;DHT22;2424;49.696;6.630;2024-02-14T14:27:00;10.20;99.90
4820;DHT22;2424;49.696;6.630;2024-02-14T14:32:24;10.20;99.90
4820;DHT22;2424;49.696;6.630;2024-02-14T14:37:46;10.30;99.90
4820;DHT22;2424;49.696;6.630;2024-02-14T14:43:07;10.30;99.90
4820;DHT22;2424;49.696;6.630;2024-02-14T14:48:31;10.30;99.90
4820;DHT22;2424;49.696;6.630;2024-02-14T14:53:53;10.40;99.90
4820;DHT22;2424;49.696;6.630;2024-02-14T14:59:15;10.50;99.90
4820;DHT22;2424;49.696;6.630;2024-02-14T15:04:41;10.50;99.90
4820;DHT22;2424;49.696;6.630;2024-02-14T15:10:06;10.50;99.90
4820;DHT22;2424;49.696;6.630;2024-02-14T15:15:28;10.60;99.90
4820;DHT22;2424;49.696;6.630;2024-02-14T15:20:51;10.60;99.90
4820;DHT22;2424;49.696;6.630;2024-02-14T15:26:13;10.60;99.90
4820;DHT22;2424;49.696;6.630;2024-02-14T15:31:37;10.60;99.90
4820;DHT22;2424;49.696;6.630;2024-02-14T15:37:18;10.60;99.90
4820;DHT22;2424;49.696;6.630;2024-02-14T15:42:40;10.50;99.90
4820;DHT22;2424;49.696;6.630;2024-02-14T15:48:02;10.50;99.90
4820;DHT22;2424;49.696;6.630;2024-02-14T15:53:25;10.50;99.90
4820;DHT22;2424;49.696;6.630;2024-02-14T15:58:52;10.50;99.90
4820;DHT22;2424;49.696;6.630;2024-02-14T16:04:14;10.40;99.90
4820;DHT22;2424;49.696;6.630;2024-02-14T16:09:37;10.40;99.90
4820;DHT22;2424;49.696;6.630;2024-02-14T16:15:00;10.40;99.90
4820;DHT22;2424;49.696;6.630;2024-02-14T16:20:22;10.40;99.90
4820;DHT22;2424;49.696;6.630;2024-02-14T16:25:45;10.40;99.90
4820;DHT22;2424;49.696;6.630;2024-02-14T16:31:08;10.40;99.90
4820;DHT22;2424;49.696;6.630;2024-02-14T16:36:30;10.40;99.90
4820;DHT22;2424;49.696;6.630;2024-02-14T16:41:53;10.40;99.90
4820;DHT22;2424;49.696;6.630;2024-02-14T16:47:15;10.50;99.90
4820;DHT22;2424;49.696;6.630;2024-02-14T16:52:37;10.50;99.90
4820;DHT22;2424;49.696;6.630;2024-02-14T16:58:00;10.50;99.90
4820;DHT22;2424;49.696;6.630;2024-02-14T17:03:22;10.50;99.90
4820;DHT22;2424;49.696;6.630;2024-02-14T17:08:44;10.60;99.90
4820;DHT22;2424;49.696;6.630;2024-02-14T17:14:07;10.60;99.90
4820;DHT22;2424;49.696;6.630;2024-02-14T17:19:30;10.50;99.90
4820;DHT22;2424;49.696;6.630;2024-02-14T17:24:53;10.60;99.90
4820;DHT22;2424;49.696;6.630;2024-02-14T17:30:20;10.60;99.90
4820;DHT22;2424;49.696;6.630;2024-02-14T17:35:43;10.60;99.90
4820;DHT22;2424;49.696;6.630;2024-02-14T17:41:05;10.60;99.90
4820;DHT22;2424;49.696;6.630;2024-02-14T17:46:29;10.60;99.90
4820;DHT22;2424;49.696;6.630;2024-02-14T17:51:52;10.60;99.90
4820;DHT22;2424;49.696;6.630;2024-02-14T17:57:13;10.60;99.90
4820;DHT22;2424;49.696;6.630;2024-02-14T18:02:38;10.60;99.90
4820;DHT22;2424;49.696;6.630;2024-02-14T18:08:00;10.60;99.90
4820;DHT22;2424;49.696;6.630;2024-02-14T18:13:21;10.60;99.90
4820;DHT22;2424;49.696;6.630;2024-02-14T18:18:45;10.60;99.90
4820;DHT22;2424;49.696;6.630;2024-02-14T18:24:07;10.60;99.90
4820;DHT22;2424;49.696;6.630;2024-02-14T18:29:29;10.60;99.90
4820;DHT22;2424;49.696;6.630;2024-02-14T18:34:53;10.60;99.90
4820;DHT22;2424;49.696;6.630;2024-02-14T18:40:15;10.70;99.90
4820;DHT22;2424;49.696;6.630;2024-02-14T18:45:37;10.70;99.90
4820;DHT22;2424;49.696;6.630;2024-02-14T18:51:00;10.70;99.90
4820;DHT22;2424;49.696;6.630;2024-02-14T18:56:22;10.70;99.90
4820;DHT22;2424;49.696;6.630;2024-02-14T19:01:46;10.70;99.90
4820;DHT22;2424;49.696;6.630;2024-02-14T19:07:09;10.70;99.90
4820;DHT22;2424;49.696;6.630;2024-02-14T19:12:32;10.70;99.90
4820;DHT22;2424;49.696;6.630;2024-02-14T19:17:54;10.70;99.90
4820;DHT22;2424;49.696;6.630;2024-02-14T19:23:18;10.80;99.90
4820;DHT22;2424;49.696;6.630;2024-02-14T19:28:40;10.80;99.90
4820;DHT22;2424;49.696;6.630;2024-02-14T19:34:02;10.80;99.90
4820;DHT22;2424;49.696;6.630;2024-02-14T19:39:25;10.80;99.90
4820;DHT22;2424;49.696;6.630;2024-02-14T19:44:47;10.80;99.90
4820;DHT22;2424;49.696;6.630;2024-02-14T19:50:09;10.80;99.90
4820;DHT22;2424;49.696;6.630;2024-02-14T19:55:35;10.90;99.90
4820;DHT22;2424;49.696;6.630;2024-02-14T20:00:57;10.90;99.90
4820;DHT22;2424;49.696;6.630;2024-02-14T20:06:19;10.90;99.90
4820;DHT22;2424;49.696;6.630;2024-02-14T20:11:43;11.00;99.90
4820;DHT22;2424;49.696;6.630;2024-02-14T20:17:05;10.90;99.90
4820;DHT22;2424;49.696;6.630;2024-02-14T20:22:27;11.00;99.90
4820;DHT22;2424;49.696;6.630;2024-02-14T20:27:51;11.00;99.90
4820;DHT22;2424;49.696;6.630;2024-02-14T20:33:14;11.00;99.90
4820;DHT22;2424;49.696;6.630;2024-02-14T20:38:36;11.00;99.90
4820;DHT22;2424;49.696;6.630;2024-02-14T20:44:00;11.00;99.90
4820;DHT22;2424;49.696;6.630;2024-02-14T20:49:23;11.00;99.90
4820;DHT22;2424;49.696;6.630;2024-02-14T20:54:47;11.00;99.90
4820;DHT22;2424;49.696;6.630;2024-02-14T21:00:11;11.00;99.90
4820;DHT22;2424;49.696;6.630;2024-02-14T21:05:34;11.00;99.90
4820;DHT22;2424;49.696;6.630;2024-02-14T21:10:55;11.00;99.90
4820;DHT22;2424;49.696;6.630;2024-02-14T21:16:19;11.00;99.90
4820;DHT22;2424;49.696;6.630;2024-02-14T21:21:41;11.00;99.90
4820;DHT22;2424;49.696;6.630;2024-02-14T21:27:03;11.10;99.90
4820;DHT22;2424;49.696;6.630;2024-02-14T21:32:27;11.10;99.90
4820;DHT22;2424;49.696;6.630;2024-02-14T21:37:49;11.00;99.90
4820;DHT22;2424;49.696;6.630;2024-02-14T21:43:11;11.00;99.90
4820;DHT22;2424;49.696;6.630;2024-02-14T21:48:34;11.00;99.90
4820;DHT22;2424;49.696;6.630;2024-02-14T21:53:57;11.00;99.90
4820;DHT22;2424;49.696;6.630;2024-02-14T21:59:19;11.00;99.90
4820;DHT22;2424;49.696;6.630;2024-02-14T22:04:42;11.00;99.90
4820;DHT22;2424;49.696;6.630;2024-02-14T22:10:06;11.00;99.90
4820;DHT22;2424;49.696;6.630;2024-02-14T22:15:28;11.00;99.90
4820;DHT22;2424;49.696;6.630;2024-02-14T22:20:52;11.00;99.90
4820;DHT22;2424;49.696;6.630;2024-02-14T22:26:14;11.00;99.90
4820;DHT22;2424;49.696;6.630;2024-02-14T22:31:36;11.00;99.90
4820;DHT22;2424;49.696;6.630;2024-02-14T22:37:00;11.00;99.90
4820;DHT22;2424;49.696;6.630;2024-02-14T22:42:23;11.00;99.90
4820;DHT22;2424;49.696;6.630;2024-02-14T22:47:45;11.00;99.90
4820;DHT22;2424;49.696;6.630;2024-02-14T22:53:08;10.90;99.90
4820;DHT22;2424;49.696;6.630;2024-02-14T22:58:30;10.90;99.90
4820;DHT22;2424;49.696;6.630;2024-02-14T23:03:52;10.90;99.90
4820;DHT22;2424;49.696;6.630;2024-02-14T23:09:16;11.00;99.90
4820;DHT22;2424;49.696;6.630;2024-02-14T23:14:38;11.00;99.90
4820;DHT22;2424;49.696;6.630;2024-02-14T23:20:00;11.00;99.90
4820;DHT22;2424;49.696;6.630;2024-02-14T23:25:24;10.90;99.90
4820;DHT22;2424;49.696;6.630;2024-02-14T23:30:46;10.90;99.90
4820;DHT22;2424;49.696;6.630;2024-02-14T23:36:08;11.00;99.90
4820;DHT22;2424;49.696;6.630;2024-02-14T23:41:32;10.90;99.90
4820;DHT22;2424;49.696;6.630;2024-02-14T23:46:54;11.00;99.90
4820;DHT22;2424;49.696;6.630;2024-02-14T23:52:16;11.00;99.90
4820;DHT22;2424;49.696;6.630;2024-02-14T23:57:41;11.00;99.90
